RYR4TT EGPH-LZIB
Flight info
| Callsign | RYR4TT |
|---|---|
| Flight time | 2h 14m |
| Altitude | 37000 |
| Route | TLA6D TLA Y96 OTBUN DCT LONAM DCT POVEL DCT OMELO DCT EVIKU DCT BNO DCT ODNEM A4 BERVA BERV2M |
| Aircraft | B738/M-SDE2E3FGHIRWXY/LB1 |
Departure
| Time | 2026-04-26 18:21 |
|---|---|
| Airport | Edinburgh Airport (EGPH) |
Arrival
| Time | 2026-04-26 20:35 |
|---|---|
| Airport | M. R. Štefánik Airport (LZIB) |
| Time | Latitude | Longitude | Altitude | Speed | Heading |
|---|---|---|---|---|---|
| 2026-04-26 17:55 | 55.94835 | -3.35805 | 113 ft | 0 kts | 208° |
| 2026-04-26 18:08 | 55.94842 | -3.35799 | 112 ft | 2 kts | 209° |
| 2026-04-26 18:09 | 55.94852 | -3.35788 | 111 ft | 2 kts | 211° |
| 2026-04-26 18:09 | 55.94863 | -3.35777 | 113 ft | 2 kts | 213° |
| 2026-04-26 18:09 | 55.94873 | -3.35765 | 112 ft | 2 kts | 214° |
| 2026-04-26 18:09 | 55.94883 | -3.35751 | 111 ft | 2 kts | 238° |
| 2026-04-26 18:10 | 55.94887 | -3.35731 | 111 ft | 2 kts | 274° |
| 2026-04-26 18:10 | 55.94886 | -3.35719 | 111 ft | 0 kts | 292° |
| 2026-04-26 18:13 | 55.94887 | -3.35720 | 111 ft | 0 kts | 292° |
| 2026-04-26 18:13 | 55.94896 | -3.35750 | 111 ft | 7 kts | 300° |
| 2026-04-26 18:13 | 55.94928 | -3.35830 | 114 ft | 8 kts | 314° |
| 2026-04-26 18:13 | 55.94963 | -3.35854 | 113 ft | 8 kts | 358° |
| 2026-04-26 18:14 | 55.95034 | -3.35846 | 115 ft | 8 kts | 334° |
| 2026-04-26 18:14 | 55.95066 | -3.35920 | 113 ft | 8 kts | 301° |
| 2026-04-26 18:14 | 55.95091 | -3.36001 | 113 ft | 7 kts | 298° |
| 2026-04-26 18:14 | 55.95110 | -3.36084 | 114 ft | 7 kts | 291° |
| 2026-04-26 18:15 | 55.95128 | -3.36173 | 112 ft | 8 kts | 290° |
| 2026-04-26 18:15 | 55.95134 | -3.36267 | 115 ft | 8 kts | 255° |
| 2026-04-26 18:15 | 55.95109 | -3.36351 | 112 ft | 8 kts | 241° |
| 2026-04-26 18:15 | 55.95084 | -3.36432 | 114 ft | 7 kts | 242° |
| 2026-04-26 18:16 | 55.95056 | -3.36516 | 113 ft | 9 kts | 237° |
| 2026-04-26 18:16 | 55.94944 | -3.36842 | 113 ft | 19 kts | 239° |
| 2026-04-26 18:16 | 55.94874 | -3.37050 | 112 ft | 20 kts | 239° |
| 2026-04-26 18:17 | 55.94798 | -3.37275 | 114 ft | 22 kts | 239° |
| 2026-04-26 18:17 | 55.94716 | -3.37517 | 115 ft | 23 kts | 239° |
| 2026-04-26 18:17 | 55.94636 | -3.37758 | 114 ft | 22 kts | 239° |
| 2026-04-26 18:17 | 55.94563 | -3.37968 | 114 ft | 18 kts | 239° |
| 2026-04-26 18:18 | 55.94499 | -3.38160 | 114 ft | 18 kts | 239° |
| 2026-04-26 18:18 | 55.94436 | -3.38344 | 112 ft | 17 kts | 236° |
| 2026-04-26 18:18 | 55.94379 | -3.38508 | 114 ft | 15 kts | 239° |
| 2026-04-26 18:18 | 55.94326 | -3.38668 | 115 ft | 15 kts | 239° |
| 2026-04-26 18:19 | 55.94288 | -3.38797 | 112 ft | 10 kts | 255° |
| 2026-04-26 18:19 | 55.94320 | -3.38898 | 114 ft | 10 kts | 326° |
| 2026-04-26 18:19 | 55.94381 | -3.38952 | 113 ft | 10 kts | 354° |
| 2026-04-26 18:19 | 55.94441 | -3.38895 | 112 ft | 10 kts | 53° |
| 2026-04-26 18:20 | 55.94552 | -3.38574 | 112 ft | 63 kts | 59° |
| 2026-04-26 18:20 | 55.94899 | -3.37555 | 112 ft | 127 kts | 59° |
| 2026-04-26 18:20 | 55.95430 | -3.35958 | 249 ft | 165 kts | 59° |
| 2026-04-26 18:20 | 55.95620 | -3.35379 | 402 ft | 168 kts | 60° |
| 2026-04-26 18:21 | 55.96848 | -3.32574 | 1252 ft | 183 kts | 36° |
| 2026-04-26 18:21 | 55.97874 | -3.31100 | 1785 ft | 190 kts | 38° |
| 2026-04-26 18:21 | 55.98964 | -3.29447 | 2047 ft | 219 kts | 38° |
| 2026-04-26 18:21 | 56.00167 | -3.27566 | 2301 ft | 239 kts | 39° |
| 2026-04-26 18:22 | 56.01438 | -3.25541 | 2649 ft | 255 kts | 40° |
| 2026-04-26 18:22 | 56.02786 | -3.23378 | 3079 ft | 269 kts | 40° |
| 2026-04-26 18:22 | 56.04200 | -3.21087 | 3876 ft | 270 kts | 43° |
| 2026-04-26 18:22 | 56.05233 | -3.18335 | 4654 ft | 276 kts | 74° |
| 2026-04-26 18:23 | 56.05407 | -3.14934 | 5453 ft | 277 kts | 95° |
| 2026-04-26 18:23 | 56.05170 | -3.11501 | 5851 ft | 280 kts | 106° |
| 2026-04-26 18:23 | 56.04264 | -3.08495 | 5991 ft | 277 kts | 137° |
| 2026-04-26 18:23 | 56.02780 | -3.06325 | 6010 ft | 275 kts | 146° |
| 2026-04-26 18:24 | 56.01248 | -3.04278 | 6016 ft | 276 kts | 146° |
| 2026-04-26 18:24 | 55.99699 | -3.02194 | 6464 ft | 281 kts | 145° |
| 2026-04-26 18:24 | 55.98151 | -3.00108 | 7365 ft | 278 kts | 148° |
| 2026-04-26 18:24 | 55.96388 | -2.98841 | 8121 ft | 273 kts | 177° |
| 2026-04-26 18:25 | 55.94541 | -2.99272 | 8872 ft | 269 kts | 205° |
| 2026-04-26 18:25 | 55.92850 | -3.00704 | 9676 ft | 270 kts | 209° |
| 2026-04-26 18:25 | 55.91160 | -3.02212 | 10413 ft | 274 kts | 208° |
| 2026-04-26 18:25 | 55.89396 | -3.03759 | 10695 ft | 295 kts | 208° |
| 2026-04-26 18:26 | 55.87485 | -3.05387 | 11009 ft | 312 kts | 207° |
| 2026-04-26 18:26 | 55.85497 | -3.07038 | 11628 ft | 318 kts | 207° |
| 2026-04-26 18:26 | 55.83477 | -3.08683 | 12364 ft | 321 kts | 207° |
| 2026-04-26 18:26 | 55.81432 | -3.10332 | 13105 ft | 324 kts | 207° |
| 2026-04-26 18:27 | 55.79363 | -3.11987 | 13840 ft | 328 kts | 206° |
| 2026-04-26 18:27 | 55.77123 | -3.12980 | 14479 ft | 341 kts | 183° |
| 2026-04-26 18:27 | 55.74775 | -3.12100 | 15182 ft | 352 kts | 161° |
| 2026-04-26 18:27 | 55.72641 | -3.09855 | 15832 ft | 363 kts | 144° |
| 2026-04-26 18:28 | 55.70679 | -3.06973 | 16498 ft | 369 kts | 142° |
| 2026-04-26 18:28 | 55.68724 | -3.03967 | 17157 ft | 374 kts | 142° |
| 2026-04-26 18:28 | 55.66760 | -3.00925 | 17824 ft | 379 kts | 142° |
| 2026-04-26 18:28 | 55.64752 | -2.97833 | 18474 ft | 383 kts | 142° |
| 2026-04-26 18:29 | 55.62722 | -2.94736 | 19076 ft | 387 kts | 142° |
| 2026-04-26 18:29 | 55.60671 | -2.91631 | 19687 ft | 390 kts | 142° |
| 2026-04-26 18:29 | 55.58600 | -2.88513 | 20282 ft | 393 kts | 143° |
| 2026-04-26 18:29 | 55.56507 | -2.85371 | 20859 ft | 396 kts | 143° |
| 2026-04-26 18:30 | 55.54391 | -2.82203 | 21418 ft | 400 kts | 143° |
| 2026-04-26 18:30 | 55.52980 | -2.80095 | 21800 ft | 402 kts | 143° |
| 2026-04-26 18:30 | 55.50836 | -2.76897 | 22375 ft | 405 kts | 143° |
| 2026-04-26 18:30 | 55.48676 | -2.73682 | 22965 ft | 407 kts | 143° |
| 2026-04-26 18:31 | 55.46504 | -2.70456 | 23532 ft | 410 kts | 143° |
| 2026-04-26 18:31 | 55.44307 | -2.67197 | 24017 ft | 414 kts | 143° |
| 2026-04-26 18:31 | 55.42099 | -2.63927 | 24474 ft | 417 kts | 143° |
| 2026-04-26 18:31 | 55.39872 | -2.60633 | 24950 ft | 419 kts | 143° |
| 2026-04-26 18:32 | 55.37639 | -2.57334 | 25439 ft | 420 kts | 144° |
| 2026-04-26 18:32 | 55.35393 | -2.54021 | 25895 ft | 423 kts | 144° |
| 2026-04-26 18:32 | 55.33132 | -2.50693 | 26342 ft | 425 kts | 144° |
| 2026-04-26 18:32 | 55.30871 | -2.47327 | 26763 ft | 429 kts | 141° |
| 2026-04-26 18:33 | 55.28856 | -2.43396 | 27168 ft | 438 kts | 130° |
| 2026-04-26 18:33 | 55.27251 | -2.38821 | 27575 ft | 445 kts | 120° |
| 2026-04-26 18:33 | 55.26086 | -2.33756 | 27969 ft | 451 kts | 112° |
| 2026-04-26 18:33 | 55.25074 | -2.28530 | 28342 ft | 454 kts | 111° |
| 2026-04-26 18:34 | 55.24086 | -2.23250 | 28658 ft | 457 kts | 111° |
| 2026-04-26 18:34 | 55.23098 | -2.17953 | 29078 ft | 458 kts | 111° |
| 2026-04-26 18:34 | 55.22093 | -2.12625 | 29408 ft | 462 kts | 112° |
| 2026-04-26 18:34 | 55.21069 | -2.07275 | 29716 ft | 465 kts | 112° |
| 2026-04-26 18:35 | 55.20024 | -2.01890 | 30050 ft | 468 kts | 112° |
| 2026-04-26 18:35 | 55.18965 | -1.96488 | 30389 ft | 470 kts | 113° |
| 2026-04-26 18:35 | 55.17897 | -1.91071 | 30676 ft | 473 kts | 113° |
| 2026-04-26 18:35 | 55.16817 | -1.85619 | 30945 ft | 475 kts | 113° |
| 2026-04-26 18:36 | 55.15729 | -1.80150 | 31199 ft | 478 kts | 113° |
| 2026-04-26 18:36 | 55.14633 | -1.74654 | 31452 ft | 480 kts | 113° |
| 2026-04-26 18:36 | 55.13530 | -1.69135 | 31702 ft | 482 kts | 113° |
| 2026-04-26 18:36 | 55.12420 | -1.63594 | 31994 ft | 483 kts | 113° |
| 2026-04-26 18:37 | 55.11310 | -1.58063 | 32282 ft | 484 kts | 112° |
| 2026-04-26 18:37 | 55.10189 | -1.52495 | 32556 ft | 486 kts | 113° |
| 2026-04-26 18:37 | 55.09066 | -1.46937 | 32890 ft | 485 kts | 113° |
| 2026-04-26 18:37 | 55.07945 | -1.41394 | 33247 ft | 484 kts | 113° |
| 2026-04-26 18:38 | 55.06819 | -1.35849 | 33562 ft | 485 kts | 113° |
| 2026-04-26 18:38 | 55.05691 | -1.30311 | 33847 ft | 485 kts | 113° |
| 2026-04-26 18:38 | 55.04558 | -1.24764 | 34155 ft | 485 kts | 113° |
| 2026-04-26 18:38 | 55.03424 | -1.19229 | 34438 ft | 485 kts | 113° |
| 2026-04-26 18:39 | 55.02287 | -1.13692 | 34716 ft | 484 kts | 113° |
| 2026-04-26 18:39 | 55.01152 | -1.08180 | 35019 ft | 483 kts | 113° |
| 2026-04-26 18:39 | 55.00030 | -1.02745 | 35232 ft | 483 kts | 112° |
| 2026-04-26 18:39 | 54.98877 | -0.97176 | 35502 ft | 482 kts | 112° |
| 2026-04-26 18:40 | 54.97737 | -0.91688 | 35818 ft | 480 kts | 112° |
| 2026-04-26 18:40 | 54.96601 | -0.86231 | 36130 ft | 479 kts | 112° |
| 2026-04-26 18:40 | 54.95464 | -0.80784 | 36374 ft | 479 kts | 112° |
| 2026-04-26 18:40 | 54.94341 | -0.75421 | 36620 ft | 478 kts | 112° |
| 2026-04-26 18:41 | 54.93202 | -0.69999 | 36891 ft | 477 kts | 112° |
| 2026-04-26 18:41 | 54.92065 | -0.64596 | 37144 ft | 476 kts | 112° |
| 2026-04-26 18:41 | 54.90908 | -0.59116 | 37281 ft | 478 kts | 112° |
| 2026-04-26 18:41 | 54.89770 | -0.53741 | 37268 ft | 482 kts | 112° |
| 2026-04-26 18:42 | 54.87430 | -0.42736 | 37290 ft | 489 kts | 112° |
| 2026-04-26 18:42 | 54.85045 | -0.31575 | 37287 ft | 496 kts | 112° |
| 2026-04-26 18:43 | 54.82623 | -0.20297 | 37287 ft | 501 kts | 112° |
| 2026-04-26 18:43 | 54.80173 | -0.08950 | 37280 ft | 504 kts | 112° |
| 2026-04-26 18:44 | 54.77704 | 0.02421 | 37282 ft | 504 kts | 112° |
| 2026-04-26 18:44 | 54.75222 | 0.13787 | 37258 ft | 504 kts | 112° |
| 2026-04-26 18:45 | 54.72740 | 0.25090 | 37286 ft | 502 kts | 113° |
| 2026-04-26 18:45 | 54.70321 | 0.36049 | 37286 ft | 501 kts | 113° |
| 2026-04-26 18:46 | 54.67830 | 0.47269 | 37292 ft | 499 kts | 113° |
| 2026-04-26 18:46 | 54.65335 | 0.58450 | 37294 ft | 498 kts | 113° |
| 2026-04-26 18:47 | 54.62835 | 0.69594 | 37302 ft | 498 kts | 113° |
| 2026-04-26 18:47 | 54.60325 | 0.80718 | 37301 ft | 497 kts | 113° |
| 2026-04-26 18:48 | 54.57808 | 0.91820 | 37307 ft | 497 kts | 113° |
| 2026-04-26 18:48 | 54.55279 | 1.02915 | 37308 ft | 497 kts | 113° |
| 2026-04-26 18:49 | 54.52758 | 1.13918 | 37307 ft | 497 kts | 113° |
| 2026-04-26 18:49 | 54.50191 | 1.25061 | 37308 ft | 497 kts | 113° |
| 2026-04-26 18:50 | 54.47635 | 1.36099 | 37311 ft | 497 kts | 113° |
| 2026-04-26 18:50 | 54.45086 | 1.47054 | 37314 ft | 496 kts | 114° |
| 2026-04-26 18:51 | 54.42513 | 1.58052 | 37319 ft | 496 kts | 114° |
| 2026-04-26 18:51 | 54.39928 | 1.69044 | 37316 ft | 496 kts | 113° |
| 2026-04-26 18:52 | 54.37774 | 1.78164 | 37325 ft | 496 kts | 114° |
| 2026-04-26 18:52 | 54.34732 | 1.90973 | 37323 ft | 496 kts | 114° |
| 2026-04-26 18:53 | 54.32117 | 2.01926 | 37323 ft | 497 kts | 114° |
| 2026-04-26 18:53 | 54.29492 | 2.12865 | 37329 ft | 497 kts | 114° |
| 2026-04-26 18:54 | 54.26854 | 2.23802 | 37329 ft | 497 kts | 114° |
| 2026-04-26 18:54 | 54.24207 | 2.34722 | 37333 ft | 497 kts | 114° |
| 2026-04-26 18:55 | 54.21547 | 2.45642 | 37316 ft | 497 kts | 114° |
| 2026-04-26 18:55 | 54.18882 | 2.56531 | 37329 ft | 497 kts | 114° |
| 2026-04-26 18:56 | 54.16209 | 2.67393 | 37337 ft | 496 kts | 114° |
| 2026-04-26 18:56 | 54.13527 | 2.78240 | 37335 ft | 496 kts | 114° |
| 2026-04-26 18:57 | 54.11288 | 2.87254 | 37336 ft | 497 kts | 114° |
| 2026-04-26 18:57 | 54.08130 | 2.99909 | 37336 ft | 497 kts | 114° |
| 2026-04-26 18:58 | 54.05415 | 3.10726 | 37337 ft | 497 kts | 114° |
| 2026-04-26 18:58 | 54.02692 | 3.21524 | 37340 ft | 497 kts | 114° |
| 2026-04-26 18:59 | 53.99952 | 3.32339 | 37343 ft | 498 kts | 114° |
| 2026-04-26 18:59 | 53.97195 | 3.43170 | 37346 ft | 499 kts | 114° |
| 2026-04-26 19:00 | 53.94439 | 3.53943 | 37346 ft | 499 kts | 114° |
| 2026-04-26 19:00 | 53.91663 | 3.64743 | 37340 ft | 499 kts | 114° |
| 2026-04-26 19:01 | 53.88883 | 3.75508 | 37348 ft | 499 kts | 114° |
| 2026-04-26 19:01 | 53.86107 | 3.86212 | 37349 ft | 499 kts | 114° |
| 2026-04-26 19:02 | 53.83357 | 3.97005 | 37347 ft | 499 kts | 111° |
| 2026-04-26 19:02 | 53.81342 | 4.06233 | 37352 ft | 499 kts | 109° |
| 2026-04-26 19:03 | 53.78677 | 4.19116 | 37356 ft | 499 kts | 109° |
| 2026-04-26 19:03 | 53.76353 | 4.30185 | 37350 ft | 500 kts | 109° |
| 2026-04-26 19:04 | 53.73991 | 4.41215 | 37356 ft | 500 kts | 109° |
| 2026-04-26 19:04 | 53.71603 | 4.52237 | 37354 ft | 499 kts | 110° |
| 2026-04-26 19:05 | 53.68004 | 4.68741 | 37360 ft | 499 kts | 110° |
| 2026-04-26 19:06 | 53.65596 | 4.79723 | 37367 ft | 499 kts | 110° |
| 2026-04-26 19:06 | 53.63179 | 4.90685 | 37350 ft | 499 kts | 110° |
| 2026-04-26 19:07 | 53.60754 | 5.01629 | 37364 ft | 498 kts | 110° |
| 2026-04-26 19:07 | 53.58322 | 5.12546 | 37363 ft | 498 kts | 110° |
| 2026-04-26 19:08 | 53.55879 | 5.23454 | 37363 ft | 498 kts | 110° |
| 2026-04-26 19:08 | 53.53425 | 5.34353 | 37362 ft | 498 kts | 110° |
| 2026-04-26 19:09 | 53.50962 | 5.45239 | 37359 ft | 498 kts | 110° |
| 2026-04-26 19:09 | 53.48491 | 5.56101 | 37355 ft | 498 kts | 110° |
| 2026-04-26 19:10 | 53.46008 | 5.66959 | 37355 ft | 498 kts | 110° |
| 2026-04-26 19:10 | 53.43513 | 5.77816 | 37346 ft | 499 kts | 110° |
| 2026-04-26 19:11 | 53.41009 | 5.88655 | 37347 ft | 499 kts | 110° |
| 2026-04-26 19:11 | 53.38495 | 5.99487 | 37346 ft | 499 kts | 110° |
| 2026-04-26 19:12 | 53.35967 | 6.10317 | 37346 ft | 499 kts | 110° |
| 2026-04-26 19:12 | 53.33431 | 6.21130 | 37344 ft | 499 kts | 110° |
| 2026-04-26 19:13 | 53.30886 | 6.31930 | 37336 ft | 499 kts | 110° |
| 2026-04-26 19:13 | 53.28331 | 6.42714 | 37327 ft | 499 kts | 111° |
| 2026-04-26 19:14 | 53.25768 | 6.53479 | 37326 ft | 499 kts | 111° |
| 2026-04-26 19:14 | 53.23629 | 6.62420 | 37321 ft | 499 kts | 111° |
| 2026-04-26 19:15 | 53.20631 | 6.74895 | 37325 ft | 499 kts | 111° |
| 2026-04-26 19:15 | 53.18039 | 6.85621 | 37319 ft | 498 kts | 111° |
| 2026-04-26 19:16 | 53.15864 | 6.94582 | 37321 ft | 498 kts | 111° |
| 2026-04-26 19:16 | 53.13257 | 7.05275 | 37326 ft | 498 kts | 111° |
| 2026-04-26 19:17 | 53.10644 | 7.15938 | 37340 ft | 498 kts | 111° |
| 2026-04-26 19:17 | 53.08019 | 7.26599 | 37321 ft | 498 kts | 111° |
| 2026-04-26 19:18 | 53.05384 | 7.37249 | 37312 ft | 498 kts | 111° |
| 2026-04-26 19:18 | 53.02746 | 7.47863 | 37313 ft | 497 kts | 111° |
| 2026-04-26 19:19 | 53.00095 | 7.58473 | 37298 ft | 497 kts | 111° |
| 2026-04-26 19:19 | 52.97436 | 7.69068 | 37312 ft | 497 kts | 111° |
| 2026-04-26 19:20 | 52.94767 | 7.79650 | 37304 ft | 497 kts | 111° |
| 2026-04-26 19:20 | 52.92091 | 7.90212 | 37308 ft | 497 kts | 111° |
| 2026-04-26 19:21 | 52.89406 | 8.00757 | 37305 ft | 497 kts | 111° |
| 2026-04-26 19:21 | 52.86708 | 8.11305 | 37319 ft | 497 kts | 111° |
| 2026-04-26 19:22 | 52.84003 | 8.21831 | 37304 ft | 497 kts | 111° |
| 2026-04-26 19:22 | 52.81285 | 8.32358 | 37298 ft | 497 kts | 111° |
| 2026-04-26 19:23 | 52.78562 | 8.42854 | 37299 ft | 497 kts | 111° |
| 2026-04-26 19:23 | 52.75825 | 8.53354 | 37303 ft | 497 kts | 112° |
| 2026-04-26 19:24 | 52.73099 | 8.63767 | 37306 ft | 498 kts | 111° |
| 2026-04-26 19:24 | 52.68945 | 8.79542 | 37295 ft | 498 kts | 112° |
| 2026-04-26 19:25 | 52.66645 | 8.88227 | 37279 ft | 498 kts | 112° |
| 2026-04-26 19:25 | 52.63403 | 9.00418 | 37294 ft | 497 kts | 112° |
| 2026-04-26 19:26 | 52.60616 | 9.10843 | 37302 ft | 498 kts | 112° |
| 2026-04-26 19:26 | 52.57820 | 9.21256 | 37294 ft | 498 kts | 112° |
| 2026-04-26 19:27 | 52.55014 | 9.31658 | 37295 ft | 498 kts | 112° |
| 2026-04-26 19:27 | 52.52199 | 9.42048 | 37291 ft | 498 kts | 112° |
| 2026-04-26 19:28 | 52.49372 | 9.52434 | 37295 ft | 498 kts | 112° |
| 2026-04-26 19:28 | 52.46536 | 9.62805 | 37294 ft | 498 kts | 112° |
| 2026-04-26 19:29 | 52.43464 | 9.72979 | 37297 ft | 499 kts | 117° |
| 2026-04-26 19:29 | 52.40003 | 9.82840 | 37295 ft | 499 kts | 119° |
| 2026-04-26 19:30 | 52.36511 | 9.92647 | 37294 ft | 499 kts | 118° |
| 2026-04-26 19:30 | 52.33635 | 10.00842 | 37284 ft | 499 kts | 118° |
| 2026-04-26 19:31 | 52.29649 | 10.12301 | 37298 ft | 499 kts | 118° |
| 2026-04-26 19:31 | 52.26220 | 10.22150 | 37295 ft | 499 kts | 118° |
| 2026-04-26 19:32 | 52.22782 | 10.31976 | 37290 ft | 499 kts | 118° |
| 2026-04-26 19:32 | 52.19335 | 10.41785 | 37304 ft | 498 kts | 118° |
| 2026-04-26 19:33 | 52.15880 | 10.51574 | 37288 ft | 498 kts | 118° |
| 2026-04-26 19:33 | 52.12415 | 10.61353 | 37288 ft | 498 kts | 119° |
| 2026-04-26 19:34 | 52.08944 | 10.71111 | 37285 ft | 498 kts | 119° |
| 2026-04-26 19:34 | 52.05466 | 10.80850 | 37286 ft | 498 kts | 119° |
| 2026-04-26 19:35 | 52.01981 | 10.90575 | 37293 ft | 498 kts | 119° |
| 2026-04-26 19:35 | 51.98492 | 11.00271 | 37280 ft | 497 kts | 119° |
| 2026-04-26 19:36 | 51.95561 | 11.08385 | 37288 ft | 497 kts | 120° |
| 2026-04-26 19:36 | 51.91493 | 11.19609 | 37290 ft | 497 kts | 120° |
| 2026-04-26 19:37 | 51.87985 | 11.29245 | 37311 ft | 497 kts | 120° |
| 2026-04-26 19:37 | 51.84467 | 11.38875 | 37294 ft | 497 kts | 120° |
| 2026-04-26 19:38 | 51.80943 | 11.48483 | 37293 ft | 497 kts | 120° |
| 2026-04-26 19:38 | 51.77413 | 11.58072 | 37292 ft | 497 kts | 120° |
| 2026-04-26 19:39 | 51.73876 | 11.67644 | 37292 ft | 497 kts | 120° |
| 2026-04-26 19:39 | 51.70330 | 11.77203 | 37299 ft | 497 kts | 121° |
| 2026-04-26 19:40 | 51.66775 | 11.86751 | 37288 ft | 497 kts | 121° |
| 2026-04-26 19:40 | 51.63213 | 11.96283 | 37298 ft | 497 kts | 121° |
| 2026-04-26 19:41 | 51.59645 | 12.05795 | 37299 ft | 497 kts | 121° |
| 2026-04-26 19:41 | 51.56671 | 12.13696 | 37311 ft | 497 kts | 121° |
| 2026-04-26 19:42 | 51.52474 | 12.24805 | 37295 ft | 498 kts | 121° |
| 2026-04-26 19:42 | 51.48873 | 12.34299 | 37294 ft | 498 kts | 121° |
| 2026-04-26 19:43 | 51.45269 | 12.43765 | 37295 ft | 498 kts | 121° |
| 2026-04-26 19:43 | 51.41651 | 12.53232 | 37294 ft | 498 kts | 121° |
| 2026-04-26 19:44 | 51.38031 | 12.62672 | 37300 ft | 498 kts | 121° |
| 2026-04-26 19:44 | 51.34404 | 12.72093 | 37284 ft | 497 kts | 122° |
| 2026-04-26 19:45 | 51.30770 | 12.81499 | 37295 ft | 496 kts | 122° |
| 2026-04-26 19:45 | 51.27137 | 12.90868 | 37300 ft | 496 kts | 122° |
| 2026-04-26 19:46 | 51.23496 | 13.00224 | 37303 ft | 496 kts | 122° |
| 2026-04-26 19:46 | 51.19852 | 13.09552 | 37299 ft | 496 kts | 122° |
| 2026-04-26 19:47 | 51.16816 | 13.17300 | 37299 ft | 496 kts | 122° |
| 2026-04-26 19:47 | 51.12540 | 13.28173 | 37296 ft | 496 kts | 122° |
| 2026-04-26 19:48 | 51.08870 | 13.37467 | 37309 ft | 496 kts | 122° |
| 2026-04-26 19:48 | 51.05216 | 13.46689 | 37297 ft | 496 kts | 122° |
| 2026-04-26 19:49 | 51.01510 | 13.56009 | 37278 ft | 496 kts | 122° |
| 2026-04-26 19:49 | 50.97818 | 13.65260 | 37291 ft | 496 kts | 122° |
| 2026-04-26 19:50 | 50.94125 | 13.74482 | 37293 ft | 495 kts | 122° |
| 2026-04-26 19:50 | 50.90423 | 13.83694 | 37298 ft | 495 kts | 122° |
| 2026-04-26 19:51 | 50.86744 | 13.92821 | 37298 ft | 495 kts | 122° |
| 2026-04-26 19:51 | 50.82776 | 14.01715 | 37291 ft | 494 kts | 134° |
| 2026-04-26 19:52 | 50.77752 | 14.09084 | 37299 ft | 493 kts | 140° |
| 2026-04-26 19:52 | 50.72616 | 14.16284 | 37294 ft | 493 kts | 139° |
| 2026-04-26 19:53 | 50.67489 | 14.23581 | 37291 ft | 492 kts | 139° |
| 2026-04-26 19:53 | 50.62428 | 14.30837 | 37283 ft | 491 kts | 139° |
| 2026-04-26 19:54 | 50.57374 | 14.38067 | 37293 ft | 490 kts | 139° |
| 2026-04-26 19:54 | 50.52323 | 14.45263 | 37281 ft | 490 kts | 139° |
| 2026-04-26 19:55 | 50.47269 | 14.52440 | 37296 ft | 490 kts | 139° |
| 2026-04-26 19:55 | 50.42472 | 14.60031 | 37290 ft | 490 kts | 133° |
| 2026-04-26 19:56 | 50.37916 | 14.67903 | 37273 ft | 490 kts | 133° |
| 2026-04-26 19:56 | 50.33337 | 14.75813 | 37275 ft | 490 kts | 133° |
| 2026-04-26 19:57 | 50.28723 | 14.83680 | 37274 ft | 490 kts | 133° |
| 2026-04-26 19:57 | 50.24844 | 14.90242 | 37281 ft | 491 kts | 133° |
| 2026-04-26 19:58 | 50.20200 | 14.98066 | 37279 ft | 491 kts | 134° |
| 2026-04-26 19:58 | 50.15547 | 15.05884 | 37274 ft | 492 kts | 134° |
| 2026-04-26 19:59 | 50.10887 | 15.13692 | 37279 ft | 492 kts | 134° |
| 2026-04-26 19:59 | 50.06213 | 15.21502 | 37271 ft | 493 kts | 134° |
| 2026-04-26 20:00 | 50.01568 | 15.29239 | 37269 ft | 494 kts | 134° |
| 2026-04-26 20:00 | 49.96852 | 15.37070 | 37275 ft | 494 kts | 134° |
| 2026-04-26 20:01 | 49.92175 | 15.44812 | 37273 ft | 495 kts | 134° |
| 2026-04-26 20:01 | 49.87538 | 15.52466 | 37216 ft | 474 kts | 134° |
| 2026-04-26 20:02 | 49.85267 | 15.56207 | 36867 ft | 466 kts | 134° |
| 2026-04-26 20:02 | 49.83093 | 15.59782 | 36551 ft | 460 kts | 134° |
| 2026-04-26 20:02 | 49.80913 | 15.63362 | 36146 ft | 456 kts | 134° |
| 2026-04-26 20:02 | 49.79452 | 15.65758 | 35911 ft | 453 kts | 134° |
| 2026-04-26 20:03 | 49.76594 | 15.70438 | 35393 ft | 448 kts | 135° |
| 2026-04-26 20:03 | 49.74461 | 15.73925 | 35015 ft | 445 kts | 135° |
| 2026-04-26 20:03 | 49.72339 | 15.77391 | 34636 ft | 442 kts | 135° |
| 2026-04-26 20:03 | 49.70232 | 15.80825 | 34255 ft | 439 kts | 135° |
| 2026-04-26 20:04 | 49.68136 | 15.84240 | 33816 ft | 437 kts | 135° |
| 2026-04-26 20:04 | 49.66053 | 15.87628 | 33415 ft | 433 kts | 135° |
| 2026-04-26 20:04 | 49.63986 | 15.90986 | 33021 ft | 430 kts | 135° |
| 2026-04-26 20:04 | 49.61928 | 15.94324 | 32563 ft | 429 kts | 135° |
| 2026-04-26 20:05 | 49.59878 | 15.97646 | 32291 ft | 424 kts | 135° |
| 2026-04-26 20:05 | 49.57851 | 16.00926 | 31888 ft | 422 kts | 135° |
| 2026-04-26 20:05 | 49.55833 | 16.04187 | 31558 ft | 418 kts | 135° |
| 2026-04-26 20:05 | 49.53830 | 16.07419 | 31197 ft | 416 kts | 136° |
| 2026-04-26 20:06 | 49.51838 | 16.10629 | 30826 ft | 414 kts | 136° |
| 2026-04-26 20:06 | 49.49851 | 16.13827 | 30484 ft | 411 kts | 136° |
| 2026-04-26 20:06 | 49.47881 | 16.16996 | 30107 ft | 409 kts | 136° |
| 2026-04-26 20:06 | 49.45920 | 16.20144 | 29712 ft | 406 kts | 136° |
| 2026-04-26 20:07 | 49.43974 | 16.23266 | 29353 ft | 402 kts | 136° |
| 2026-04-26 20:07 | 49.42046 | 16.26354 | 28988 ft | 399 kts | 136° |
| 2026-04-26 20:07 | 49.40135 | 16.29412 | 28611 ft | 396 kts | 136° |
| 2026-04-26 20:07 | 49.38235 | 16.32449 | 28259 ft | 393 kts | 136° |
| 2026-04-26 20:08 | 49.36346 | 16.35463 | 27898 ft | 390 kts | 136° |
| 2026-04-26 20:08 | 49.34468 | 16.38457 | 27538 ft | 388 kts | 136° |
| 2026-04-26 20:08 | 49.32603 | 16.41426 | 27182 ft | 385 kts | 136° |
| 2026-04-26 20:08 | 49.30751 | 16.44373 | 26833 ft | 383 kts | 136° |
| 2026-04-26 20:09 | 49.28904 | 16.47307 | 26484 ft | 381 kts | 136° |
| 2026-04-26 20:09 | 49.27071 | 16.50216 | 26149 ft | 379 kts | 136° |
| 2026-04-26 20:09 | 49.25244 | 16.53113 | 25796 ft | 377 kts | 136° |
| 2026-04-26 20:09 | 49.23426 | 16.55992 | 25458 ft | 375 kts | 136° |
| 2026-04-26 20:10 | 49.21619 | 16.58851 | 25110 ft | 373 kts | 136° |
| 2026-04-26 20:10 | 49.19820 | 16.61695 | 24787 ft | 371 kts | 136° |
| 2026-04-26 20:10 | 49.18029 | 16.64522 | 24455 ft | 369 kts | 136° |
| 2026-04-26 20:10 | 49.16242 | 16.67339 | 24121 ft | 368 kts | 136° |
| 2026-04-26 20:11 | 49.14462 | 16.70146 | 23769 ft | 367 kts | 136° |
| 2026-04-26 20:11 | 49.12708 | 16.72953 | 23380 ft | 365 kts | 135° |
| 2026-04-26 20:11 | 49.10963 | 16.75767 | 23021 ft | 363 kts | 135° |
| 2026-04-26 20:12 | 49.07508 | 16.81338 | 22331 ft | 359 kts | 135° |
| 2026-04-26 20:12 | 49.05798 | 16.84090 | 21995 ft | 357 kts | 135° |
| 2026-04-26 20:12 | 49.04095 | 16.86825 | 21662 ft | 355 kts | 135° |
| 2026-04-26 20:12 | 49.02400 | 16.89543 | 21329 ft | 352 kts | 135° |
| 2026-04-26 20:13 | 49.00718 | 16.92236 | 21009 ft | 350 kts | 135° |
| 2026-04-26 20:13 | 48.99040 | 16.94920 | 20687 ft | 349 kts | 135° |
| 2026-04-26 20:13 | 48.97368 | 16.97591 | 20350 ft | 348 kts | 135° |
| 2026-04-26 20:13 | 48.95704 | 17.00246 | 20038 ft | 346 kts | 134° |
| 2026-04-26 20:14 | 48.94047 | 17.02890 | 19713 ft | 345 kts | 134° |
| 2026-04-26 20:14 | 48.92390 | 17.05529 | 19386 ft | 344 kts | 134° |
| 2026-04-26 20:14 | 48.90740 | 17.08155 | 19070 ft | 343 kts | 134° |
| 2026-04-26 20:14 | 48.89096 | 17.10771 | 18758 ft | 342 kts | 134° |
| 2026-04-26 20:15 | 48.87457 | 17.13374 | 18419 ft | 341 kts | 134° |
| 2026-04-26 20:15 | 48.85842 | 17.15934 | 18069 ft | 339 kts | 134° |
| 2026-04-26 20:15 | 48.84195 | 17.18550 | 17724 ft | 338 kts | 134° |
| 2026-04-26 20:15 | 48.82601 | 17.21092 | 17408 ft | 336 kts | 134° |
| 2026-04-26 20:16 | 48.80996 | 17.23653 | 17092 ft | 334 kts | 134° |
| 2026-04-26 20:16 | 48.79399 | 17.26199 | 16776 ft | 332 kts | 134° |
| 2026-04-26 20:16 | 48.77790 | 17.28762 | 16449 ft | 331 kts | 134° |
| 2026-04-26 20:16 | 48.76230 | 17.31245 | 16135 ft | 329 kts | 134° |
| 2026-04-26 20:17 | 48.74656 | 17.33748 | 15843 ft | 327 kts | 134° |
| 2026-04-26 20:17 | 48.73087 | 17.36236 | 15533 ft | 326 kts | 134° |
| 2026-04-26 20:17 | 48.71523 | 17.38715 | 15220 ft | 325 kts | 134° |
| 2026-04-26 20:17 | 48.70470 | 17.40384 | 15012 ft | 324 kts | 134° |
| 2026-04-26 20:18 | 48.68414 | 17.43640 | 14602 ft | 322 kts | 134° |
| 2026-04-26 20:18 | 48.66866 | 17.46090 | 14302 ft | 321 kts | 134° |
| 2026-04-26 20:18 | 48.65323 | 17.48532 | 13988 ft | 321 kts | 134° |
| 2026-04-26 20:18 | 48.63783 | 17.50965 | 13640 ft | 320 kts | 134° |
| 2026-04-26 20:19 | 48.62249 | 17.53385 | 13313 ft | 318 kts | 134° |
| 2026-04-26 20:19 | 48.60714 | 17.55763 | 13106 ft | 314 kts | 135° |
| 2026-04-26 20:19 | 48.59164 | 17.58095 | 12938 ft | 313 kts | 135° |
| 2026-04-26 20:19 | 48.57618 | 17.60413 | 12770 ft | 314 kts | 135° |
| 2026-04-26 20:20 | 48.56023 | 17.62684 | 12587 ft | 317 kts | 144° |
| 2026-04-26 20:20 | 48.54048 | 17.64117 | 12431 ft | 316 kts | 163° |
| 2026-04-26 20:20 | 48.51966 | 17.65189 | 12247 ft | 316 kts | 163° |
| 2026-04-26 20:20 | 48.49879 | 17.66257 | 12068 ft | 316 kts | 163° |
| 2026-04-26 20:21 | 48.47800 | 17.67330 | 11891 ft | 317 kts | 163° |
| 2026-04-26 20:21 | 48.45718 | 17.68416 | 11715 ft | 316 kts | 163° |
| 2026-04-26 20:21 | 48.43643 | 17.69506 | 11536 ft | 316 kts | 162° |
| 2026-04-26 20:21 | 48.41572 | 17.70598 | 11366 ft | 315 kts | 162° |
| 2026-04-26 20:22 | 48.39502 | 17.71692 | 11179 ft | 315 kts | 162° |
| 2026-04-26 20:22 | 48.37440 | 17.72780 | 11012 ft | 314 kts | 162° |
| 2026-04-26 20:22 | 48.35363 | 17.73738 | 10847 ft | 309 kts | 175° |
| 2026-04-26 20:22 | 48.33271 | 17.73741 | 10760 ft | 295 kts | 188° |
| 2026-04-26 20:23 | 48.31240 | 17.73475 | 10522 ft | 292 kts | 189° |
| 2026-04-26 20:23 | 48.29219 | 17.73200 | 10229 ft | 291 kts | 189° |
| 2026-04-26 20:23 | 48.27196 | 17.72943 | 9913 ft | 291 kts | 188° |
| 2026-04-26 20:23 | 48.25187 | 17.72709 | 9621 ft | 289 kts | 188° |
| 2026-04-26 20:24 | 48.23183 | 17.72491 | 9320 ft | 288 kts | 188° |
| 2026-04-26 20:24 | 48.21191 | 17.72285 | 9021 ft | 286 kts | 188° |
| 2026-04-26 20:24 | 48.19209 | 17.72086 | 8733 ft | 285 kts | 188° |
| 2026-04-26 20:24 | 48.17236 | 17.71892 | 8453 ft | 283 kts | 188° |
| 2026-04-26 20:25 | 48.15272 | 17.71702 | 8167 ft | 282 kts | 188° |
| 2026-04-26 20:25 | 48.13978 | 17.71577 | 7969 ft | 281 kts | 188° |
| 2026-04-26 20:25 | 48.11371 | 17.71327 | 7565 ft | 281 kts | 188° |
| 2026-04-26 20:25 | 48.09423 | 17.71141 | 7275 ft | 280 kts | 188° |
| 2026-04-26 20:26 | 48.07479 | 17.70956 | 6974 ft | 280 kts | 188° |
| 2026-04-26 20:26 | 48.05543 | 17.70772 | 6740 ft | 277 kts | 188° |
| 2026-04-26 20:26 | 48.03644 | 17.70592 | 6523 ft | 277 kts | 188° |
| 2026-04-26 20:26 | 48.01721 | 17.70408 | 6302 ft | 275 kts | 187° |
| 2026-04-26 20:27 | 47.99802 | 17.70226 | 6090 ft | 271 kts | 187° |
| 2026-04-26 20:27 | 47.97940 | 17.70017 | 5885 ft | 265 kts | 193° |
| 2026-04-26 20:27 | 47.96305 | 17.68963 | 5689 ft | 252 kts | 221° |
| 2026-04-26 20:27 | 47.95033 | 17.67278 | 5523 ft | 245 kts | 227° |
| 2026-04-26 20:28 | 47.93816 | 17.65490 | 5341 ft | 240 kts | 227° |
| 2026-04-26 20:28 | 47.92714 | 17.63681 | 5145 ft | 238 kts | 241° |
| 2026-04-26 20:28 | 47.92346 | 17.61359 | 5022 ft | 232 kts | 282° |
| 2026-04-26 20:28 | 47.93008 | 17.59233 | 5006 ft | 227 kts | 310° |
| 2026-04-26 20:29 | 47.93993 | 17.57412 | 4986 ft | 222 kts | 312° |
| 2026-04-26 20:29 | 47.94980 | 17.55726 | 4971 ft | 210 kts | 314° |
| 2026-04-26 20:29 | 47.95957 | 17.54149 | 4977 ft | 206 kts | 315° |
| 2026-04-26 20:29 | 47.96943 | 17.52592 | 4988 ft | 207 kts | 315° |
| 2026-04-26 20:30 | 47.97944 | 17.51022 | 5005 ft | 211 kts | 315° |
| 2026-04-26 20:30 | 47.98964 | 17.49426 | 5001 ft | 213 kts | 315° |
| 2026-04-26 20:30 | 47.99989 | 17.47823 | 4937 ft | 215 kts | 315° |
| 2026-04-26 20:30 | 48.01038 | 17.46184 | 4646 ft | 219 kts | 315° |
| 2026-04-26 20:31 | 48.02084 | 17.44549 | 4359 ft | 215 kts | 316° |
| 2026-04-26 20:31 | 48.03105 | 17.42951 | 4059 ft | 210 kts | 316° |
| 2026-04-26 20:31 | 48.04106 | 17.41387 | 3773 ft | 205 kts | 316° |
| 2026-04-26 20:31 | 48.05080 | 17.39865 | 3508 ft | 200 kts | 317° |
| 2026-04-26 20:32 | 48.06030 | 17.38381 | 3233 ft | 196 kts | 317° |
| 2026-04-26 20:32 | 48.06962 | 17.36927 | 2970 ft | 191 kts | 317° |
| 2026-04-26 20:32 | 48.07861 | 17.35522 | 2709 ft | 184 kts | 317° |
| 2026-04-26 20:32 | 48.08740 | 17.34151 | 2465 ft | 182 kts | 318° |
| 2026-04-26 20:33 | 48.09597 | 17.32813 | 2207 ft | 174 kts | 318° |
| 2026-04-26 20:33 | 48.10412 | 17.31541 | 1977 ft | 165 kts | 318° |
| 2026-04-26 20:33 | 48.11173 | 17.30353 | 1788 ft | 150 kts | 319° |
| 2026-04-26 20:33 | 48.11862 | 17.29280 | 1570 ft | 139 kts | 318° |
| 2026-04-26 20:34 | 48.12531 | 17.28234 | 1324 ft | 141 kts | 315° |
| 2026-04-26 20:34 | 48.13185 | 17.27155 | 1159 ft | 141 kts | 313° |
| 2026-04-26 20:34 | 48.13856 | 17.26076 | 965 ft | 141 kts | 316° |
| 2026-04-26 20:34 | 48.14564 | 17.25058 | 811 ft | 143 kts | 316° |
| 2026-04-26 20:35 | 48.15253 | 17.23974 | 616 ft | 144 kts | 314° |
| 2026-04-26 20:35 | 48.15943 | 17.22894 | 444 ft | 140 kts | 314° |
| 2026-04-26 20:35 | 48.16539 | 17.21979 | 426 ft | 95 kts | 314° |
| 2026-04-26 20:35 | 48.16852 | 17.21499 | 419 ft | 35 kts | 311° |
| 2026-04-26 20:36 | 48.17020 | 17.21224 | 427 ft | 36 kts | 318° |
| 2026-04-26 20:36 | 48.17122 | 17.21042 | 425 ft | 16 kts | 262° |
| 2026-04-26 20:36 | 48.17088 | 17.20962 | 421 ft | 9 kts | 225° |
| 2026-04-26 20:36 | 48.17046 | 17.20893 | 421 ft | 9 kts | 226° |
| 2026-04-26 20:37 | 48.17004 | 17.20829 | 429 ft | 9 kts | 221° |
| 2026-04-26 20:37 | 48.16962 | 17.20763 | 424 ft | 10 kts | 230° |
| 2026-04-26 20:37 | 48.16909 | 17.20677 | 424 ft | 13 kts | 223° |
| 2026-04-26 20:37 | 48.16841 | 17.20567 | 433 ft | 17 kts | 227° |
| 2026-04-26 20:38 | 48.16750 | 17.20424 | 433 ft | 14 kts | 226° |
| 2026-04-26 20:38 | 48.16739 | 17.20333 | 428 ft | 11 kts | 299° |
| 2026-04-26 20:38 | 48.16799 | 17.20235 | 430 ft | 13 kts | 314° |
| 2026-04-26 20:38 | 48.16856 | 17.20135 | 437 ft | 12 kts | 297° |
| 2026-04-26 20:39 | 48.16884 | 17.20069 | 438 ft | 4 kts | 314° |
| 2026-04-26 20:39 | 48.16892 | 17.20057 | 436 ft | 2 kts | 315° |
| 2026-04-26 20:39 | 48.16894 | 17.20054 | 438 ft | 0 kts | 315° |